createdAt,value
2024-02-22T00:00:49.846Z,94475.00
2024-02-22T00:01:49.130Z,94472.00
2024-02-22T00:02:49.034Z,94468.00
2024-02-22T00:03:49.010Z,94464.00
2024-02-22T00:04:49.206Z,94476.00
2024-02-22T00:05:49.176Z,94471.00
2024-02-22T00:06:49.092Z,94464.00
2024-02-22T00:07:49.047Z,94466.00
2024-02-22T00:08:48.998Z,94468.00
2024-02-22T00:09:49.119Z,94460.00
2024-02-22T00:10:49.140Z,94458.00
2024-02-22T00:11:49.184Z,94456.00
2024-02-22T00:12:49.085Z,94449.00
2024-02-22T00:13:49.085Z,94455.00
2024-02-22T00:14:49.053Z,94460.00
2024-02-22T00:15:48.988Z,94448.00
2024-02-22T00:16:49.089Z,94454.00
2024-02-22T00:17:49.735Z,94456.00
2024-02-22T00:18:49.213Z,94449.00
2024-02-22T00:19:49.160Z,94458.00
2024-02-22T00:20:49.049Z,94453.00
2024-02-22T00:21:49.085Z,94444.00
2024-02-22T00:22:49.086Z,94435.00
2024-02-22T00:23:49.472Z,94443.00
2024-02-22T00:24:49.065Z,94448.00
2024-02-22T00:25:49.108Z,94432.00
2024-02-22T00:26:49.033Z,94429.00
2024-02-22T00:27:49.056Z,94445.00
2024-02-22T00:28:49.101Z,94453.00
2024-02-22T00:29:49.144Z,94435.00
2024-02-22T00:30:49.133Z,94430.00
2024-02-22T00:31:49.211Z,94425.00
2024-02-22T00:32:49.243Z,94442.00
2024-02-22T00:33:49.276Z,94448.00
2024-02-22T00:34:49.318Z,94461.00
2024-02-22T00:35:49.289Z,94441.00
2024-02-22T00:36:49.316Z,94424.00
2024-02-22T00:37:49.396Z,94419.00
2024-02-22T00:38:49.390Z,94428.00
2024-02-22T00:39:49.440Z,94434.00
2024-02-22T00:40:49.574Z,94413.00
2024-02-22T00:41:49.520Z,94426.00
2024-02-22T00:42:49.502Z,94431.00
2024-02-22T00:43:49.573Z,94421.00
2024-02-22T00:44:49.573Z,94418.00
2024-02-22T00:45:49.582Z,94424.00
2024-02-22T00:46:51.864Z,94419.00
2024-02-22T00:47:49.651Z,94410.00
2024-02-22T00:48:49.718Z,94421.00
2024-02-22T00:49:49.751Z,94417.00
2024-02-22T00:50:49.715Z,94432.00
2024-02-22T00:51:49.695Z,94435.00
2024-02-22T00:52:49.745Z,94414.00
2024-02-22T00:53:49.752Z,94407.00
2024-02-22T00:54:49.648Z,94419.00
2024-02-22T00:55:49.728Z,94415.00
2024-02-22T00:56:49.668Z,94407.00
2024-02-22T00:57:49.619Z,94404.00
2024-02-22T00:58:49.750Z,94409.00
2024-02-22T00:59:49.645Z,94412.00
2024-02-22T01:00:49.694Z,94396.00
2024-02-22T01:01:49.714Z,94395.00
2024-02-22T01:02:49.862Z,94403.00
2024-02-22T01:03:49.760Z,94411.00
2024-02-22T01:04:49.781Z,94394.00
2024-02-22T01:05:49.799Z,94399.00
2024-02-22T01:06:49.693Z,94411.00
2024-02-22T01:07:49.658Z,94402.00
2024-02-22T01:08:49.722Z,94395.00
2024-02-22T01:09:49.672Z,94396.00
2024-02-22T01:10:49.782Z,94374.00
2024-02-22T01:11:49.809Z,94388.00
2024-02-22T01:12:49.728Z,94396.00
2024-02-22T01:13:49.724Z,94383.00
2024-02-22T01:14:49.761Z,94374.00
2024-02-22T01:15:49.711Z,94382.00
2024-02-22T01:16:49.727Z,94384.00
2024-02-22T01:17:49.817Z,94375.00
2024-02-22T01:18:49.745Z,94367.00
2024-02-22T01:19:49.794Z,94383.00
2024-02-22T01:20:49.684Z,94388.00
2024-02-22T01:21:49.702Z,94373.00
2024-02-22T01:22:49.670Z,94379.00
2024-02-22T01:23:49.769Z,94385.00
2024-02-22T01:24:49.666Z,94369.00
2024-02-22T01:25:49.687Z,94360.00
2024-02-22T01:26:49.687Z,94371.00
2024-02-22T01:27:49.766Z,94359.00
2024-02-22T01:28:49.773Z,94351.00
2024-02-22T01:29:49.741Z,94365.00
2024-02-22T01:30:49.764Z,94375.00
2024-02-22T01:31:49.714Z,94369.00
2024-02-22T01:32:49.882Z,94348.00
2024-02-22T01:33:49.798Z,94340.00
2024-02-22T01:34:49.698Z,94347.00
2024-02-22T01:35:49.693Z,94340.00
2024-02-22T01:36:49.687Z,94347.00
2024-02-22T01:37:49.727Z,94356.00
2024-02-22T01:38:49.653Z,94346.00
2024-02-22T01:39:49.698Z,94328.00
2024-02-22T01:40:49.770Z,94333.00
2024-02-22T01:41:49.728Z,94348.00
2024-02-22T01:42:49.883Z,94347.00
2024-02-22T01:43:49.772Z,94335.00
2024-02-22T01:44:49.851Z,94325.00
2024-02-22T01:45:49.854Z,94323.00
2024-02-22T01:46:49.920Z,94335.00
2024-02-22T01:47:50.012Z,94344.00
2024-02-22T01:48:52.070Z,94310.00
2024-02-22T01:49:50.841Z,94329.00
2024-02-22T01:50:50.034Z,94332.00
2024-02-22T01:51:50.039Z,94330.00
2024-02-22T01:52:50.155Z,94325.00
2024-02-22T01:53:50.155Z,94316.00
2024-02-22T01:54:50.176Z,94329.00
2024-02-22T01:55:50.206Z,94321.00
2024-02-22T01:56:50.244Z,94340.00
2024-02-22T01:57:50.252Z,94316.00
2024-02-22T01:58:50.336Z,94307.00
2024-02-22T01:59:50.302Z,94319.00
2024-02-22T02:00:50.385Z,94325.00
2024-02-22T02:01:50.421Z,94308.00
2024-02-22T02:02:50.376Z,94311.00
2024-02-22T02:03:50.462Z,94312.00
2024-02-22T02:04:50.536Z,94318.00
2024-02-22T02:05:50.476Z,94310.00
2024-02-22T02:06:50.579Z,94308.00
2024-02-22T02:07:50.654Z,94300.00
2024-02-22T02:08:50.557Z,94302.00
2024-02-22T02:09:50.686Z,94299.00
2024-02-22T02:10:50.689Z,94315.00
2024-02-22T02:11:50.750Z,94310.00
2024-02-22T02:12:50.699Z,94304.00
2024-02-22T02:13:50.776Z,94305.00
2024-02-22T02:14:50.778Z,94309.00
2024-02-22T02:15:50.787Z,94311.00
2024-02-22T02:16:50.861Z,94303.00
2024-02-22T02:17:50.874Z,94313.00
2024-02-22T02:18:50.945Z,94298.00
2024-02-22T02:19:50.998Z,94306.00
2024-02-22T02:20:50.953Z,94309.00
2024-02-22T02:21:51.022Z,94301.00
2024-02-22T02:22:51.067Z,94298.00
2024-02-22T02:23:51.060Z,94302.00
2024-02-22T02:24:51.064Z,94303.00
2024-02-22T02:25:51.333Z,94300.00
2024-02-22T02:26:51.291Z,94288.00
2024-02-22T02:27:51.189Z,94284.00
2024-02-22T02:28:51.229Z,94290.00
2024-02-22T02:29:51.348Z,94290.00
2024-02-22T02:30:51.347Z,94285.00
2024-02-22T02:31:51.562Z,94287.00
2024-02-22T02:32:51.464Z,94282.00
2024-02-22T02:33:51.534Z,94283.00
2024-02-22T02:34:51.528Z,94285.00
2024-02-22T02:35:51.468Z,94279.00
2024-02-22T02:36:51.486Z,94274.00
2024-02-22T02:37:51.490Z,94273.00
2024-02-22T02:38:51.589Z,94286.00
2024-02-22T02:39:51.556Z,94288.00
2024-02-22T02:40:51.599Z,94287.00
2024-02-22T02:41:51.564Z,94288.00
2024-02-22T02:42:51.721Z,94280.00
2024-02-22T02:43:51.700Z,94277.00
2024-02-22T02:44:51.706Z,94275.00
2024-02-22T02:45:51.734Z,94275.00
2024-02-22T02:46:51.804Z,94272.00
2024-02-22T02:47:51.867Z,94271.00
2024-02-22T02:48:51.988Z,94273.00
2024-02-22T02:49:51.868Z,94268.00
2024-02-22T02:50:51.877Z,94272.00
2024-02-22T02:51:51.944Z,94273.00
2024-02-22T02:52:51.966Z,94269.00
2024-02-22T02:53:52.002Z,94267.00
2024-02-22T02:54:52.072Z,94263.00
2024-02-22T02:55:52.096Z,94262.00
2024-02-22T02:56:52.090Z,94261.00
2024-02-22T02:57:52.147Z,94259.00
2024-02-22T02:58:52.263Z,94256.00
2024-02-22T02:59:52.200Z,94254.00
2024-02-22T03:00:52.294Z,94254.00
2024-02-22T03:01:52.364Z,94253.00
2024-02-22T03:02:52.361Z,94251.00
2024-02-22T03:03:52.362Z,94249.00
2024-02-22T03:04:52.563Z,94250.00
2024-02-22T03:05:52.488Z,94249.00
2024-02-22T03:06:52.907Z,94246.00
2024-02-22T03:07:52.525Z,94243.00
2024-02-22T03:08:52.537Z,94240.00
2024-02-22T03:09:52.521Z,94236.00
2024-02-22T03:10:52.732Z,94229.00
2024-02-22T03:11:52.707Z,94229.00
2024-02-22T03:12:52.661Z,94228.00
2024-02-22T03:13:52.755Z,94228.00
2024-02-22T03:14:52.746Z,94227.00
2024-02-22T03:15:52.765Z,94227.00
2024-02-22T03:16:52.833Z,94225.00
2024-02-22T03:17:52.927Z,94223.00
2024-02-22T03:18:52.972Z,94219.00
2024-02-22T03:19:52.909Z,94217.00
2024-02-22T03:20:52.972Z,94214.00
2024-02-22T03:21:53.158Z,94212.00
2024-02-22T03:22:53.057Z,94212.00
2024-02-22T03:23:53.100Z,94205.00
2024-02-22T03:24:53.082Z,94204.00
2024-02-22T03:25:53.288Z,94211.00
2024-02-22T03:26:53.149Z,94206.00
2024-02-22T03:27:53.206Z,94202.00
2024-02-22T03:28:53.309Z,94207.00
2024-02-22T03:29:53.255Z,94205.00
2024-02-22T03:30:53.386Z,94198.00
2024-02-22T03:31:53.462Z,94195.00
2024-02-22T03:32:53.423Z,94199.00
2024-02-22T03:33:53.432Z,94200.00
2024-02-22T03:34:53.493Z,94194.00
2024-02-22T03:35:53.473Z,94193.00
2024-02-22T03:36:53.515Z,94190.00
2024-02-22T03:37:53.561Z,94189.00
2024-02-22T03:38:53.533Z,94188.00
2024-02-22T03:39:53.647Z,94182.00
2024-02-22T03:40:53.694Z,94182.00
2024-02-22T03:41:53.645Z,94185.00
2024-02-22T03:42:53.721Z,94186.00
2024-02-22T03:43:53.832Z,94190.00
2024-02-22T03:44:53.847Z,94192.00
2024-02-22T03:45:53.788Z,94179.00
2024-02-22T03:46:53.868Z,94174.00
2024-02-22T03:47:53.927Z,94176.00
2024-02-22T03:48:53.882Z,94173.00
2024-02-22T03:49:53.899Z,94169.00
2024-02-22T03:50:53.953Z,94166.00
2024-02-22T03:51:53.937Z,94165.00
2024-02-22T03:52:54.022Z,94161.00
2024-02-22T03:53:54.034Z,94161.00
2024-02-22T03:54:54.007Z,94156.00
2024-02-22T03:55:54.454Z,94154.00
2024-02-22T03:56:54.103Z,94152.00
2024-02-22T03:57:55.189Z,94153.00
2024-02-22T03:58:54.178Z,94148.00
2024-02-22T03:59:54.180Z,94144.00
2024-02-22T04:00:54.215Z,94141.00
2024-02-22T04:01:54.318Z,94145.00
2024-02-22T04:02:54.355Z,94145.00
2024-02-22T04:03:54.403Z,94147.00
2024-02-22T04:04:54.384Z,94143.00
2024-02-22T04:05:54.548Z,94134.00
2024-02-22T04:06:54.611Z,94133.00
2024-02-22T04:07:54.527Z,94129.00
2024-02-22T04:08:54.442Z,94142.00
2024-02-22T04:09:54.527Z,94146.00
2024-02-22T04:10:54.638Z,94141.00
2024-02-22T04:11:54.689Z,94145.00
2024-02-22T04:12:54.583Z,94145.00
2024-02-22T04:13:54.657Z,94130.00
2024-02-22T04:14:54.671Z,94131.00
2024-02-22T04:15:54.702Z,94127.00
2024-02-22T04:16:54.799Z,94124.00
2024-02-22T04:17:54.858Z,94122.00
2024-02-22T04:18:55.030Z,94124.00
2024-02-22T04:19:54.862Z,94129.00
2024-02-22T04:20:54.879Z,94120.00
2024-02-22T04:21:54.861Z,94120.00
2024-02-22T04:22:55.848Z,94121.00
2024-02-22T04:23:54.917Z,94121.00
2024-02-22T04:24:54.942Z,94117.00
2024-02-22T04:25:55.035Z,94104.00
2024-02-22T04:27:02.180Z,94101.00
2024-02-22T04:28:02.227Z,94107.00
2024-02-22T04:29:02.314Z,94113.00
2024-02-22T04:30:02.262Z,94113.00
2024-02-22T04:31:09.484Z,94105.00
2024-02-22T04:32:09.530Z,94106.00
2024-02-22T04:33:09.545Z,94107.00
2024-02-22T04:34:09.488Z,94102.00
2024-02-22T04:35:09.623Z,94098.00
2024-02-22T04:36:09.474Z,94090.00
2024-02-22T04:37:09.475Z,94089.00
2024-02-22T04:38:09.555Z,94089.00
2024-02-22T04:39:09.568Z,94096.00
2024-02-22T04:40:09.514Z,94093.00
2024-02-22T04:41:09.655Z,94078.00
2024-02-22T04:42:09.487Z,94068.00
2024-02-22T04:43:09.454Z,94059.00
2024-02-22T04:44:09.497Z,94059.00
2024-02-22T04:45:09.466Z,94065.00
2024-02-22T04:46:09.450Z,94062.00
2024-02-22T04:47:09.459Z,94069.00
2024-02-22T04:48:09.614Z,94079.00
2024-02-22T04:49:09.502Z,94053.00
2024-02-22T04:50:09.540Z,94044.00
2024-02-22T04:51:09.482Z,94055.00
2024-02-22T04:52:09.427Z,94054.00
2024-02-22T04:53:09.511Z,94035.00
2024-02-22T04:54:09.521Z,94040.00
2024-02-22T04:55:09.443Z,94040.00
2024-02-22T04:56:09.513Z,94032.00
2024-02-22T04:57:09.467Z,94042.00
2024-02-22T04:58:09.470Z,94044.00
2024-02-22T04:59:09.552Z,94021.00
2024-02-22T05:00:09.515Z,94031.00
2024-02-22T05:01:09.581Z,94056.00
2024-02-22T05:02:09.571Z,94035.00
2024-02-22T05:03:09.478Z,94024.00
2024-02-22T05:04:09.697Z,94025.00
2024-02-22T05:05:09.755Z,94030.00
2024-02-22T05:06:09.493Z,94037.00
2024-02-22T05:07:09.435Z,94013.00
2024-02-22T05:08:09.518Z,94021.00
2024-02-22T05:09:09.582Z,94032.00
2024-02-22T05:10:09.477Z,94034.00
2024-02-22T05:11:09.755Z,94034.00
2024-02-22T05:12:09.642Z,94031.00
2024-02-22T05:13:09.672Z,93998.00
2024-02-22T05:14:09.756Z,94004.00
2024-02-22T05:15:09.680Z,94015.00
2024-02-22T05:16:09.698Z,94019.00
2024-02-22T05:17:09.743Z,94020.00
2024-02-22T05:18:09.820Z,94021.00
2024-02-22T05:19:09.784Z,94016.00
2024-02-22T05:20:09.904Z,94012.00
2024-02-22T05:21:09.884Z,94000.00
2024-02-22T05:22:09.986Z,93989.00
2024-02-22T05:23:09.994Z,94005.00
2024-02-22T05:24:09.993Z,94012.00
2024-02-22T05:25:10.089Z,94021.00
2024-02-22T05:26:10.055Z,94009.00
2024-02-22T05:27:10.114Z,93998.00
2024-02-22T05:28:10.123Z,93988.00
2024-02-22T05:29:10.315Z,94001.00
2024-02-22T05:30:10.191Z,94002.00
2024-02-22T05:31:10.238Z,93984.00
2024-02-22T05:32:10.316Z,94008.00
2024-02-22T05:33:10.365Z,94006.00
2024-02-22T05:34:10.392Z,94001.00
2024-02-22T05:35:10.419Z,94004.00
2024-02-22T05:36:10.400Z,94013.00
2024-02-22T05:37:10.649Z,94001.00
2024-02-22T05:38:10.489Z,93981.00
2024-02-22T05:39:10.529Z,93978.00
2024-02-22T05:40:10.538Z,93977.00
2024-02-22T05:41:10.630Z,93972.00
2024-02-22T05:42:10.589Z,94015.00
2024-02-22T05:43:10.631Z,93963.00
2024-02-22T05:44:10.676Z,93975.00
2024-02-22T05:45:10.695Z,93981.00
2024-02-22T05:46:10.752Z,93968.00
2024-02-22T05:47:10.890Z,93985.00
2024-02-22T05:48:10.920Z,93968.00
2024-02-22T05:49:10.954Z,93962.00
2024-02-22T05:50:11.142Z,93985.00
2024-02-22T05:51:10.959Z,93982.00
2024-02-22T05:52:10.998Z,93967.00
2024-02-22T05:53:11.135Z,93962.00
2024-02-22T05:54:11.089Z,93968.00
2024-02-22T05:55:11.074Z,93972.00
2024-02-22T05:56:11.205Z,93985.00
2024-02-22T05:57:12.524Z,93965.00
2024-02-22T05:58:11.209Z,93973.00
2024-02-22T05:59:11.335Z,93974.00
2024-02-22T06:00:11.301Z,93930.00
2024-02-22T06:01:11.401Z,93917.00
2024-02-22T06:02:11.392Z,93928.00
2024-02-22T06:03:11.474Z,93945.00
2024-02-22T06:04:11.475Z,93943.00
2024-02-22T06:05:11.772Z,93969.00
2024-02-22T06:06:11.559Z,93961.00
2024-02-22T06:07:11.596Z,93970.00
2024-02-22T06:08:11.674Z,93961.00
2024-02-22T06:09:12.590Z,93967.00
2024-02-22T06:10:11.636Z,93979.00
2024-02-22T06:11:11.804Z,93946.00
2024-02-22T06:12:14.265Z,93942.00
2024-02-22T06:13:11.727Z,93964.00
2024-02-22T06:14:11.884Z,93944.00
2024-02-22T06:15:11.751Z,93949.00
2024-02-22T06:16:11.792Z,93955.00
2024-02-22T06:17:11.797Z,93953.00
2024-02-22T06:18:11.819Z,93962.00
2024-02-22T06:19:11.786Z,93947.00
2024-02-22T06:20:11.787Z,93952.00
2024-02-22T06:21:11.705Z,93969.00
2024-02-22T06:22:11.729Z,93953.00
2024-02-22T06:23:11.752Z,93939.00
2024-02-22T06:24:11.744Z,93975.00
2024-02-22T06:25:11.746Z,93961.00
2024-02-22T06:26:11.770Z,93949.00
2024-02-22T06:27:12.185Z,93929.00
2024-02-22T06:28:11.779Z,93936.00
2024-02-22T06:29:11.846Z,93933.00
2024-02-22T06:30:11.722Z,93931.00
2024-02-22T06:31:11.781Z,93945.00
2024-02-22T06:32:12.304Z,93935.00
2024-02-22T06:33:11.898Z,93927.00
2024-02-22T06:34:12.165Z,93924.00
2024-02-22T06:35:11.836Z,93928.00
2024-02-22T06:36:12.134Z,93920.00
2024-02-22T06:37:11.741Z,93927.00
2024-02-22T06:38:11.855Z,93926.00
2024-02-22T06:39:11.757Z,93929.00
2024-02-22T06:40:11.736Z,93920.00
2024-02-22T06:41:11.786Z,93928.00
2024-02-22T06:42:11.898Z,93922.00
2024-02-22T06:43:11.801Z,93929.00
2024-02-22T06:44:11.922Z,93921.00
2024-02-22T06:45:11.837Z,93917.00
2024-02-22T06:46:11.748Z,93921.00
2024-02-22T06:47:11.922Z,93926.00
2024-02-22T06:48:12.093Z,93924.00
2024-02-22T06:49:12.068Z,93920.00
2024-02-22T06:50:11.948Z,93927.00
2024-02-22T06:51:11.985Z,93925.00
2024-02-22T06:52:11.992Z,93925.00
2024-02-22T06:53:12.132Z,93924.00
2024-02-22T06:54:12.063Z,93911.00
2024-02-22T06:55:12.080Z,93905.00
2024-02-22T06:56:12.753Z,93921.00
2024-02-22T06:57:13.630Z,93909.00
2024-02-22T06:58:12.110Z,93911.00
2024-02-22T06:59:12.201Z,93906.00
2024-02-22T07:00:12.164Z,93910.00
2024-02-22T07:01:12.278Z,93897.00
2024-02-22T07:02:12.294Z,93898.00
2024-02-22T07:03:12.247Z,93892.00
2024-02-22T07:04:13.160Z,93882.00
2024-02-22T07:05:12.462Z,93882.00
2024-02-22T07:06:13.027Z,93896.00
2024-02-22T07:07:19.641Z,93890.00
2024-02-22T07:08:12.462Z,93893.00
2024-02-22T07:09:15.188Z,93901.00
2024-02-22T07:10:12.506Z,93889.00
2024-02-22T07:11:12.441Z,93877.00
2024-02-22T07:12:12.574Z,93888.00
2024-02-22T07:13:12.639Z,93881.00
2024-02-22T07:14:12.718Z,93892.00
2024-02-22T07:15:15.165Z,93866.00
2024-02-22T07:16:12.380Z,93865.00
2024-02-22T07:17:12.717Z,93869.00
2024-02-22T07:18:12.583Z,93874.00
2024-02-22T07:19:12.751Z,93885.00
2024-02-22T07:20:12.412Z,93858.00
2024-02-22T07:21:12.371Z,93875.00
2024-02-22T07:22:12.473Z,93872.00
2024-02-22T07:23:13.152Z,93861.00
2024-02-22T07:24:12.735Z,93848.00
2024-02-22T07:25:12.405Z,93862.00
2024-02-22T07:26:12.547Z,93861.00
2024-02-22T07:27:12.636Z,93863.00
2024-02-22T07:28:13.342Z,93859.00
2024-02-22T07:29:14.668Z,93857.00
2024-02-22T07:30:12.651Z,93854.00
2024-02-22T07:31:15.367Z,93856.00
2024-02-22T07:32:12.515Z,93862.00
2024-02-22T07:33:12.784Z,93862.00
2024-02-22T07:34:12.664Z,93857.00
2024-02-22T07:35:12.446Z,93855.00
2024-02-22T07:36:12.639Z,93857.00
2024-02-22T07:37:12.501Z,93865.00
2024-02-22T07:38:12.452Z,93872.00
2024-02-22T07:39:12.423Z,93861.00
2024-02-22T07:40:12.462Z,93863.00
2024-02-22T07:41:12.551Z,93864.00
2024-02-22T07:42:12.512Z,93858.00
2024-02-22T07:43:12.523Z,93870.00
2024-02-22T07:44:15.210Z,93880.00
2024-02-22T07:45:13.360Z,93864.00
2024-02-22T07:46:13.697Z,93860.00
2024-02-22T07:47:15.265Z,93885.00
2024-02-22T07:48:12.564Z,93890.00
2024-02-22T07:49:12.464Z,93880.00
2024-02-22T07:50:13.223Z,93880.00
2024-02-22T07:51:12.678Z,93876.00
2024-02-22T07:52:12.453Z,93886.00
2024-02-22T07:53:13.166Z,93891.00
2024-02-22T07:54:14.658Z,93883.00
2024-02-22T07:55:12.424Z,93871.00
2024-02-22T07:56:13.075Z,93892.00
2024-02-22T07:57:12.463Z,93888.00
2024-02-22T07:58:13.279Z,93883.00
2024-02-22T07:59:12.799Z,93877.00
2024-02-22T08:00:14.117Z,93893.00
2024-02-22T08:01:12.663Z,93896.00
2024-02-22T08:02:12.767Z,93889.00
2024-02-22T08:03:12.785Z,93888.00
2024-02-22T08:04:12.717Z,93870.00
2024-02-22T08:05:12.901Z,93887.00
2024-02-22T08:06:14.042Z,93885.00
2024-02-22T08:07:13.287Z,93868.00
2024-02-22T08:08:12.945Z,93878.00
2024-02-22T08:09:12.860Z,93874.00
2024-02-22T08:10:14.756Z,93870.00
2024-02-22T08:11:13.957Z,93860.00
2024-02-22T08:12:23.792Z,93860.00
2024-02-22T08:13:12.950Z,93858.00
2024-02-22T08:14:13.197Z,93850.00
2024-02-22T08:15:14.924Z,93843.00
2024-02-22T08:16:13.582Z,93879.00
2024-02-22T08:17:13.150Z,93851.00
2024-02-22T08:18:13.024Z,93849.00
2024-02-22T08:19:13.012Z,93852.00
2024-02-22T08:20:13.724Z,93858.00
2024-02-22T08:21:13.091Z,93865.00
2024-02-22T08:22:13.041Z,93845.00
2024-02-22T08:23:13.811Z,93861.00
2024-02-22T08:24:13.676Z,93860.00
2024-02-22T08:25:13.644Z,93845.00
2024-02-22T08:26:13.274Z,93839.00
2024-02-22T08:27:13.619Z,93841.00
2024-02-22T08:28:13.242Z,93856.00
2024-02-22T08:29:13.422Z,93860.00
2024-02-22T08:30:14.393Z,93842.00
2024-02-22T08:31:15.326Z,93848.00
2024-02-22T08:32:13.393Z,93852.00
2024-02-22T08:33:15.332Z,93842.00
2024-02-22T08:34:13.548Z,93825.00
2024-02-22T08:35:13.421Z,93838.00
2024-02-22T08:36:13.402Z,93833.00
2024-02-22T08:37:13.392Z,93839.00
2024-02-22T08:38:13.689Z,93863.00
2024-02-22T08:39:13.403Z,93822.00
2024-02-22T08:40:25.080Z,93837.00
2024-02-22T08:41:15.200Z,93857.00
2024-02-22T08:42:13.469Z,93846.00
2024-02-22T08:43:13.502Z,93838.00
2024-02-22T08:44:16.573Z,93848.00
2024-02-22T08:45:13.476Z,93841.00
2024-02-22T08:46:13.723Z,93830.00
2024-02-22T08:47:13.531Z,93853.00
2024-02-22T08:48:13.600Z,93848.00
2024-02-22T08:49:13.455Z,93858.00
2024-02-22T08:50:13.509Z,93855.00
2024-02-22T08:51:13.457Z,93854.00
2024-02-22T08:52:13.459Z,93847.00
2024-02-22T08:53:14.222Z,93846.00
2024-02-22T08:54:13.425Z,93853.00
2024-02-22T08:55:13.856Z,93863.00
2024-02-22T08:56:13.717Z,93868.00
2024-02-22T08:57:13.554Z,93865.00
2024-02-22T08:58:13.456Z,93856.00
2024-02-22T08:59:13.464Z,93869.00
2024-02-22T09:00:13.688Z,93860.00
2024-02-22T09:01:13.625Z,93865.00
2024-02-22T09:02:13.764Z,93873.00
2024-02-22T09:03:13.479Z,93857.00
2024-02-22T09:04:13.527Z,93852.00
2024-02-22T09:05:13.486Z,93858.00
2024-02-22T09:06:13.661Z,93850.00
2024-02-22T09:07:13.741Z,93847.00
2024-02-22T09:08:13.747Z,93844.00
2024-02-22T09:09:13.515Z,93825.00
2024-02-22T09:10:13.539Z,93838.00
2024-02-22T09:11:14.570Z,93839.00
2024-02-22T09:12:13.506Z,93843.00
2024-02-22T09:13:13.745Z,93849.00
2024-02-22T09:14:13.449Z,93841.00
2024-02-22T09:15:13.510Z,93828.00
2024-02-22T09:16:13.487Z,93822.00
2024-02-22T09:17:13.529Z,93823.00
2024-02-22T09:18:14.265Z,93810.00
2024-02-22T09:19:14.289Z,93828.00
2024-02-22T09:20:14.499Z,93840.00
2024-02-22T09:21:13.610Z,93825.00
2024-02-22T09:22:13.718Z,93818.00
2024-02-22T09:23:13.614Z,93808.00
2024-02-22T09:24:13.469Z,93832.00
2024-02-22T09:25:13.545Z,93826.00
2024-02-22T09:26:13.616Z,93820.00
2024-02-22T09:27:13.757Z,93817.00
2024-02-22T09:28:13.494Z,93835.00
2024-02-22T09:29:13.526Z,93810.00
2024-02-22T09:30:13.473Z,93809.00
2024-02-22T09:31:13.495Z,93821.00
2024-02-22T09:32:13.613Z,93806.00
2024-02-22T09:33:13.485Z,93802.00
2024-02-22T09:34:13.753Z,93808.00
2024-02-22T09:35:13.612Z,93811.00
2024-02-22T09:36:13.621Z,93793.00
2024-02-22T09:37:14.244Z,93799.00
2024-02-22T09:38:13.571Z,93797.00
2024-02-22T09:39:13.530Z,93815.00
2024-02-22T09:40:14.283Z,93792.00
2024-02-22T09:41:13.590Z,93781.00
2024-02-22T09:42:14.265Z,93786.00
2024-02-22T09:43:13.543Z,93795.00
2024-02-22T09:44:13.633Z,93762.00
2024-02-22T09:45:14.281Z,93798.00
2024-02-22T09:46:13.591Z,93767.00
2024-02-22T09:47:13.695Z,93761.00
2024-02-22T09:48:13.803Z,93772.00
2024-02-22T09:49:13.637Z,93780.00
2024-02-22T09:50:16.840Z,93797.00
2024-02-22T09:51:14.392Z,93778.00
2024-02-22T09:52:13.830Z,93774.00
2024-02-22T09:53:13.689Z,93786.00
2024-02-22T09:54:13.563Z,93777.00
2024-02-22T09:55:13.642Z,93765.00
2024-02-22T09:56:14.471Z,93773.00
2024-02-22T09:57:13.709Z,93778.00
2024-02-22T09:58:14.192Z,93759.00
2024-02-22T09:59:14.239Z,93756.00
2024-02-22T10:00:15.100Z,93789.00
2024-02-22T10:01:13.648Z,93782.00
2024-02-22T10:02:13.767Z,93778.00
2024-02-22T10:03:13.534Z,93775.00
2024-02-22T10:04:13.704Z,93783.00
2024-02-22T10:05:14.108Z,93779.00
2024-02-22T10:06:13.780Z,93770.00
2024-02-22T10:07:13.849Z,93777.00
2024-02-22T10:08:14.390Z,93780.00
2024-02-22T10:09:14.257Z,93787.00
2024-02-22T10:10:13.573Z,93782.00
2024-02-22T10:11:14.383Z,93768.00
2024-02-22T10:12:16.002Z,93763.00
2024-02-22T10:13:14.982Z,93768.00
2024-02-22T10:14:14.002Z,93785.00
2024-02-22T10:15:13.714Z,93795.00
2024-02-22T10:16:14.292Z,93773.00
2024-02-22T10:17:13.846Z,93784.00
2024-02-22T10:18:13.775Z,93772.00
2024-02-22T10:19:13.661Z,93758.00
2024-02-22T10:20:13.703Z,93753.00
2024-02-22T10:21:13.608Z,93762.00
2024-02-22T10:22:14.757Z,93749.00
2024-02-22T10:23:13.945Z,93794.00
2024-02-22T10:24:13.857Z,93770.00
2024-02-22T10:25:14.071Z,93748.00
2024-02-22T10:26:13.948Z,93752.00
2024-02-22T10:27:14.287Z,93750.00
2024-02-22T10:28:18.596Z,93755.00
2024-02-22T10:29:16.832Z,93755.00
2024-02-22T10:30:14.267Z,93759.00
2024-02-22T10:31:13.972Z,93746.00
2024-02-22T10:32:14.083Z,93755.00
2024-02-22T10:33:14.172Z,93768.00
2024-02-22T10:34:14.579Z,93765.00
2024-02-22T10:35:14.100Z,93739.00
2024-02-22T10:36:14.003Z,93727.00
2024-02-22T10:37:17.097Z,93746.00
2024-02-22T10:38:15.106Z,93748.00
2024-02-22T10:39:15.683Z,93755.00
2024-02-22T10:40:14.142Z,93757.00
2024-02-22T10:41:14.093Z,93737.00
2024-02-22T10:42:13.981Z,93749.00
2024-02-22T10:43:14.692Z,93730.00
2024-02-22T10:44:14.865Z,93742.00
2024-02-22T10:45:13.982Z,93706.00
2024-02-22T10:46:13.941Z,93725.00
2024-02-22T10:47:14.410Z,93725.00
2024-02-22T10:48:14.430Z,93729.00
2024-02-22T10:49:13.992Z,93713.00
2024-02-22T10:50:14.015Z,93715.00
2024-02-22T10:51:13.923Z,93722.00
2024-02-22T10:52:13.929Z,93720.00
2024-02-22T10:53:14.780Z,93735.00
2024-02-22T10:54:13.999Z,93706.00
2024-02-22T10:55:14.046Z,93707.00
2024-02-22T10:56:14.213Z,93706.00
2024-02-22T10:57:14.175Z,93708.00
2024-02-22T10:58:14.679Z,93734.00
2024-02-22T10:59:14.570Z,93707.00
2024-02-22T11:00:15.209Z,93698.00
2024-02-22T11:01:14.567Z,93662.00
2024-02-22T11:02:14.423Z,93687.00
2024-02-22T11:03:14.474Z,93696.00
2024-02-22T11:04:14.541Z,93684.00
2024-02-22T11:05:14.940Z,93692.00
2024-02-22T11:06:14.646Z,93712.00
2024-02-22T11:07:14.697Z,93683.00
2024-02-22T11:08:14.822Z,93686.00
2024-02-22T11:09:15.752Z,93684.00
2024-02-22T11:10:15.300Z,93705.00
2024-02-22T11:11:15.028Z,93685.00
2024-02-22T11:12:15.034Z,93707.00
2024-02-22T11:13:15.063Z,93670.00
2024-02-22T11:14:15.175Z,93675.00
2024-02-22T11:15:15.593Z,93682.00
2024-02-22T11:16:15.113Z,93672.00
2024-02-22T11:17:15.245Z,93681.00
2024-02-22T11:18:15.320Z,93662.00
2024-02-22T11:19:15.412Z,93643.00
2024-02-22T11:20:16.397Z,93629.00
2024-02-22T11:21:15.466Z,93620.00
2024-02-22T11:22:19.545Z,93604.00
2024-02-22T11:23:16.933Z,93623.00
2024-02-22T11:24:15.408Z,93615.00
2024-02-22T11:25:15.377Z,93601.00
2024-02-22T11:26:15.611Z,93609.00
2024-02-22T11:27:15.474Z,93602.00
2024-02-22T11:28:15.510Z,93602.00
2024-02-22T11:29:16.366Z,93604.00
2024-02-22T11:30:15.483Z,93610.00
2024-02-22T11:31:15.803Z,93596.00
2024-02-22T11:32:18.329Z,93597.00
2024-02-22T11:33:15.508Z,93578.00
2024-02-22T11:34:15.537Z,93589.00
2024-02-22T11:35:15.487Z,93574.00
2024-02-22T11:36:15.417Z,93572.00
2024-02-22T11:37:15.418Z,93569.00
2024-02-22T11:38:15.438Z,93592.00
2024-02-22T11:39:15.438Z,93578.00
2024-02-22T11:40:15.428Z,93561.00
2024-02-22T11:41:15.582Z,93559.00
2024-02-22T11:42:15.420Z,93542.00
2024-02-22T11:43:15.393Z,93574.00
2024-02-22T11:44:15.538Z,93549.00
2024-02-22T11:45:15.427Z,93564.00